createdAt,value
2018-06-19T00:00:51.489Z,99030.70
2018-06-19T00:03:20.260Z,99026.44
2018-06-19T00:05:49.983Z,99030.31
2018-06-19T00:08:18.742Z,99038.55
2018-06-19T00:10:47.545Z,99031.30
2018-06-19T00:13:16.321Z,99029.88
2018-06-19T00:15:45.056Z,99023.90
2018-06-19T00:18:18.361Z,99026.04
2018-06-19T00:20:47.163Z,99021.66
2018-06-19T00:23:16.031Z,99022.84
2018-06-19T00:25:44.809Z,99030.39
2018-06-19T00:28:13.600Z,99023.52
2018-06-19T00:30:42.394Z,99027.73
2018-06-19T00:33:11.197Z,99032.34
2018-06-19T00:35:39.971Z,99028.95
2018-06-19T00:38:09.560Z,99035.72
2018-06-19T00:40:38.248Z,99039.98
2018-06-19T00:43:07.072Z,99038.74
2018-06-19T00:45:35.762Z,99037.98
2018-06-19T00:48:04.551Z,99042.08
2018-06-19T00:50:33.451Z,99034.58
2018-06-19T00:53:02.207Z,99044.89
2018-06-19T00:55:31.195Z,99038.73
2018-06-19T00:57:59.986Z,99035.09
2018-06-19T01:00:28.716Z,99034.81
2018-06-19T01:02:57.468Z,99036.60
2018-06-19T01:05:26.300Z,99036.28
2018-06-19T01:07:55.138Z,99036.14
2018-06-19T01:10:23.812Z,99037.04
2018-06-19T01:12:52.585Z,99042.02
2018-06-19T01:15:21.387Z,99038.72
2018-06-19T01:17:50.231Z,99036.23
2018-06-19T01:20:19.173Z,99030.39
2018-06-19T01:22:47.961Z,99040.84
2018-06-19T01:25:16.636Z,99040.47
2018-06-19T01:27:45.578Z,99042.83
2018-06-19T01:30:14.415Z,99045.26
2018-06-19T01:32:43.186Z,99043.13
2018-06-19T01:35:12.049Z,99046.02
2018-06-19T01:37:40.764Z,99051.28
2018-06-19T01:40:09.463Z,99048.92
2018-06-19T01:42:38.184Z,99049.82
2018-06-19T01:45:07.629Z,99044.69
2018-06-19T01:47:36.461Z,99049.48
2018-06-19T01:50:05.384Z,99055.16
2018-06-19T01:52:34.107Z,99046.23
2018-06-19T01:55:02.926Z,99048.02
2018-06-19T01:57:31.663Z,99048.14
2018-06-19T02:00:00.462Z,99041.11
2018-06-19T02:02:29.252Z,99048.78
2018-06-19T02:04:58.011Z,99047.84
2018-06-19T02:07:26.861Z,99049.80
2018-06-19T02:09:55.590Z,99046.77
2018-06-19T02:12:24.352Z,99043.17
2018-06-19T02:14:53.133Z,99051.31
2018-06-19T02:17:21.936Z,99049.00
2018-06-19T02:19:50.886Z,99050.36
2018-06-19T02:22:19.801Z,99044.14
2018-06-19T02:24:48.557Z,99049.73
2018-06-19T02:27:17.509Z,99053.27
2018-06-19T02:29:46.266Z,99055.61
2018-06-19T02:32:15.089Z,99055.20
2018-06-19T02:34:43.892Z,99058.02
2018-06-19T02:37:12.801Z,99056.91
2018-06-19T02:39:41.521Z,99057.75
2018-06-19T02:42:10.233Z,99051.88
2018-06-19T02:44:38.967Z,99058.19
2018-06-19T02:47:07.708Z,99063.71
2018-06-19T02:49:36.491Z,99068.95
2018-06-19T02:52:05.249Z,99064.33
2018-06-19T02:54:34.351Z,99066.98
2018-06-19T02:57:02.996Z,99071.34
2018-06-19T02:59:31.715Z,99071.45
2018-06-19T03:02:00.435Z,99065.56
2018-06-19T03:04:29.224Z,99079.13
2018-06-19T03:06:57.985Z,99079.31
2018-06-19T03:09:26.928Z,99080.56
2018-06-19T03:11:55.659Z,99084.73
2018-06-19T03:14:24.478Z,99078.95
2018-06-19T03:16:53.266Z,99078.95
2018-06-19T03:19:22.091Z,99088.53
2018-06-19T03:21:50.827Z,99081.97
2018-06-19T03:24:19.554Z,99084.34
2018-06-19T03:26:48.336Z,99075.90
2018-06-19T03:29:17.231Z,99083.00
2018-06-19T03:31:45.931Z,99086.16
2018-06-19T03:34:14.638Z,99086.91
2018-06-19T03:36:43.441Z,99085.77
2018-06-19T03:39:12.789Z,99083.56
2018-06-19T03:41:42.027Z,99087.86
2018-06-19T03:44:10.774Z,99087.95
2018-06-19T03:46:39.636Z,99088.53
2018-06-19T03:49:13.960Z,99086.80
2018-06-19T03:51:42.681Z,99088.40
2018-06-19T03:54:11.388Z,99087.50
2018-06-19T03:56:40.173Z,99092.29
2018-06-19T03:59:08.845Z,99100.36
2018-06-19T04:01:37.555Z,99102.84
2018-06-19T04:04:06.675Z,99103.19
2018-06-19T04:06:35.420Z,99110.19
2018-06-19T04:09:06.390Z,99106.56
2018-06-19T04:11:35.134Z,99107.32
2018-06-19T04:14:03.906Z,99107.19
2018-06-19T04:16:32.728Z,99106.52
2018-06-19T04:19:01.509Z,99112.31
2018-06-19T04:21:30.275Z,99107.16
2018-06-19T04:23:59.092Z,99110.09
2018-06-19T04:26:27.834Z,99110.59
2018-06-19T04:28:56.575Z,99117.08
2018-06-19T04:31:25.336Z,99111.84
2018-06-19T04:33:54.109Z,99111.02
2018-06-19T04:36:22.866Z,99116.52
2018-06-19T04:38:51.536Z,99115.44
2018-06-19T04:41:20.300Z,99113.14
2018-06-19T04:43:57.882Z,99123.25
2018-06-19T04:46:26.672Z,99113.25
2018-06-19T04:48:55.520Z,99115.30
2018-06-19T04:51:24.422Z,99114.52
2018-06-19T04:53:53.279Z,99115.09
2018-06-19T04:56:22.017Z,99106.58
2018-06-19T04:58:50.837Z,99117.63
2018-06-19T05:01:19.771Z,99112.81
2018-06-19T05:03:49.008Z,99113.88
2018-06-19T05:06:17.951Z,99114.08
2018-06-19T05:08:46.930Z,99111.36
2018-06-19T05:11:15.824Z,99112.88
2018-06-19T05:13:44.614Z,99110.91
2018-06-19T05:16:13.534Z,99111.35
2018-06-19T05:18:43.447Z,99116.43
2018-06-19T05:21:12.228Z,99120.14
2018-06-19T05:23:40.895Z,99119.36
2018-06-19T05:26:09.842Z,99120.39
2018-06-19T05:28:38.598Z,99119.13
2018-06-19T05:31:07.485Z,99121.92
2018-06-19T05:33:36.284Z,99120.75
2018-06-19T05:36:05.199Z,99126.72
2018-06-19T05:38:35.083Z,99130.39
2018-06-19T05:41:03.789Z,99131.59
2018-06-19T05:43:32.608Z,99134.08
2018-06-19T05:46:01.299Z,99137.32
2018-06-19T05:48:30.130Z,99135.23
2018-06-19T05:50:58.887Z,99123.22
2018-06-19T05:53:27.609Z,99123.67
2018-06-19T05:55:56.460Z,99133.61
2018-06-19T05:58:25.184Z,99127.69
2018-06-19T06:00:54.095Z,99139.53
2018-06-19T06:03:22.808Z,99136.31
2018-06-19T06:05:51.564Z,99140.29
2018-06-19T06:08:20.331Z,99142.95
2018-06-19T06:10:49.174Z,99145.61
2018-06-19T06:13:17.957Z,99141.99
2018-06-19T06:15:46.699Z,99148.30
2018-06-19T06:18:15.506Z,99150.03
2018-06-19T06:20:44.186Z,99149.45
2018-06-19T06:23:12.949Z,99159.39
2018-06-19T06:25:41.656Z,99158.87
2018-06-19T06:28:10.395Z,99162.13
2018-06-19T06:30:39.255Z,99163.22
2018-06-19T06:33:08.399Z,99158.58
2018-06-19T06:35:37.344Z,99160.23
2018-06-19T06:38:06.027Z,99163.98
2018-06-19T06:40:34.848Z,99169.29
2018-06-19T06:43:03.620Z,99163.19
2018-06-19T06:45:32.542Z,99164.72
2018-06-19T06:48:01.381Z,99168.20
2018-06-19T06:50:30.245Z,99166.09
2018-06-19T06:52:58.836Z,99172.89
2018-06-19T06:55:27.695Z,99168.06
2018-06-19T06:57:56.812Z,99171.45
2018-06-19T07:00:26.210Z,99159.73
2018-06-19T07:02:55.151Z,99159.39
2018-06-19T07:05:24.070Z,99163.84
2018-06-19T07:07:53.186Z,99164.05
2018-06-19T07:10:22.097Z,99174.97
2018-06-19T07:12:50.887Z,99174.14
2018-06-19T07:15:19.800Z,99167.63
2018-06-19T07:17:48.575Z,99170.13
2018-06-19T07:20:17.335Z,99155.20
2018-06-19T07:22:46.443Z,99165.20
2018-06-19T07:25:15.216Z,99159.11
2018-06-19T07:27:44.039Z,99165.41
2018-06-19T07:30:12.909Z,99165.16
2018-06-19T07:32:41.745Z,99167.22
2018-06-19T07:35:10.520Z,99159.52
2018-06-19T07:37:39.543Z,99164.16
2018-06-19T07:40:08.335Z,99159.83
2018-06-19T07:42:37.231Z,99159.68
2018-06-19T07:45:07.232Z,99159.73
2018-06-19T07:47:36.219Z,99165.87
2018-06-19T07:50:05.230Z,99153.66
2018-06-19T07:52:34.009Z,99151.23
2018-06-19T07:55:02.938Z,99150.45
2018-06-19T07:57:31.934Z,99148.57
2018-06-19T08:00:00.691Z,99150.78
2018-06-19T08:02:29.574Z,99149.83
2018-06-19T08:04:58.258Z,99153.09
2018-06-19T08:07:26.982Z,99156.10
2018-06-19T08:09:55.974Z,99139.85
2018-06-19T08:12:24.687Z,99147.86
2018-06-19T08:14:53.404Z,99150.28
2018-06-19T08:17:22.026Z,99151.46
2018-06-19T08:19:50.748Z,99153.61
2018-06-19T08:22:19.703Z,99150.75
2018-06-19T08:24:48.600Z,99151.56
2018-06-19T08:27:17.350Z,99149.66
2018-06-19T08:29:46.263Z,99146.67
2018-06-19T08:32:14.976Z,99142.72
2018-06-19T08:34:45.046Z,99137.69
2018-06-19T08:37:13.939Z,99130.56
2018-06-19T08:39:42.703Z,99136.05
2018-06-19T08:42:11.446Z,99131.36
2018-06-19T08:44:40.198Z,99138.38
2018-06-19T08:47:08.896Z,99133.70
2018-06-19T08:49:37.681Z,99141.50
2018-06-19T08:52:06.470Z,99133.91
2018-06-19T08:54:35.255Z,99134.72
2018-06-19T08:57:03.944Z,99139.55
2018-06-19T08:59:32.758Z,99138.94
2018-06-19T09:02:01.422Z,99143.12
2018-06-19T09:04:30.361Z,99137.30
2018-06-19T09:06:59.222Z,99140.77
2018-06-19T09:09:28.209Z,99136.03
2018-06-19T09:11:56.888Z,99134.12
2018-06-19T09:14:25.596Z,99135.22
2018-06-19T09:16:54.292Z,99140.45
2018-06-19T09:19:23.061Z,99133.72
2018-06-19T09:21:51.912Z,99133.88
2018-06-19T09:24:20.692Z,99138.61
2018-06-19T09:26:49.370Z,99141.53
2018-06-19T09:29:18.317Z,99145.37
2018-06-19T09:31:47.103Z,99153.14
2018-06-19T09:34:15.985Z,99155.30
2018-06-19T09:36:44.629Z,99158.69
2018-06-19T09:39:14.265Z,99156.91
2018-06-19T09:41:44.305Z,99156.05
2018-06-19T09:44:13.065Z,99157.67
2018-06-19T09:46:42.059Z,99163.34
2018-06-19T09:49:10.872Z,99158.08
2018-06-19T09:51:40.889Z,99151.23
2018-06-19T09:54:09.777Z,99149.63
2018-06-19T09:56:38.591Z,99147.71
2018-06-19T09:59:07.422Z,99146.67
2018-06-19T10:01:36.320Z,99145.58
2018-06-19T10:04:05.262Z,99142.88
2018-06-19T10:06:34.143Z,99144.14
2018-06-19T10:09:03.128Z,99148.84
2018-06-19T10:11:31.969Z,99154.11
2018-06-19T10:14:00.802Z,99147.69
2018-06-19T10:16:29.518Z,99146.70
2018-06-19T10:18:58.198Z,99144.86
2018-06-19T10:21:28.117Z,99145.59
2018-06-19T10:23:56.925Z,99144.89
2018-06-19T10:26:26.343Z,99142.77
2018-06-19T10:28:55.185Z,99142.52
2018-06-19T10:31:25.638Z,99135.17
2018-06-19T10:33:54.462Z,99130.95
2018-06-19T10:36:23.271Z,99130.61
2018-06-19T10:38:51.969Z,99125.94
2018-06-19T10:41:20.701Z,99132.36
2018-06-19T10:43:49.516Z,99134.59
2018-06-19T10:46:18.242Z,99134.16
2018-06-19T10:48:47.229Z,99133.77
2018-06-19T10:51:15.896Z,99125.66
2018-06-19T10:53:45.995Z,99133.18
2018-06-19T10:56:14.711Z,99132.09
2018-06-19T10:58:43.493Z,99128.17
2018-06-19T11:01:12.171Z,99131.95
2018-06-19T11:03:40.940Z,99136.40
2018-06-19T11:06:09.793Z,99135.03
2018-06-19T11:08:38.582Z,99135.17
2018-06-19T11:11:07.378Z,99134.02
2018-06-19T11:13:36.183Z,99133.66
2018-06-19T11:16:05.140Z,99127.73
2018-06-19T11:18:33.940Z,99133.55
2018-06-19T11:21:02.735Z,99130.31
2018-06-19T11:23:31.407Z,99123.67
2018-06-19T11:26:00.256Z,99129.92
2018-06-19T11:28:29.314Z,99123.25
2018-06-19T11:30:58.281Z,99123.73
2018-06-19T11:33:27.014Z,99117.81
2018-06-19T11:35:55.803Z,99109.87
2018-06-19T11:38:24.717Z,99123.22
2018-06-19T11:40:53.434Z,99117.70
2018-06-19T11:43:22.196Z,99115.92
2018-06-19T11:45:51.175Z,99112.06
2018-06-19T11:48:19.947Z,99103.84
2018-06-19T11:50:48.755Z,99104.30
2018-06-19T11:53:17.541Z,99105.25
2018-06-19T11:55:46.336Z,99101.37
2018-06-19T11:58:15.122Z,99103.08
2018-06-19T12:00:43.910Z,99110.73
2018-06-19T12:03:12.645Z,99114.19
2018-06-19T12:05:41.289Z,99109.77
2018-06-19T12:08:09.984Z,99104.30
2018-06-19T12:10:38.693Z,99106.90
2018-06-19T12:13:07.447Z,99107.33
2018-06-19T12:15:36.307Z,99099.88
2018-06-19T12:18:05.276Z,99088.80
2018-06-19T12:20:34.028Z,99096.48
2018-06-19T12:23:02.806Z,99096.06
2018-06-19T12:25:31.453Z,99093.35
2018-06-19T12:28:00.225Z,99086.19
2018-06-19T12:30:28.968Z,99092.38
2018-06-19T12:32:57.721Z,99087.09
2018-06-19T12:35:26.479Z,99086.48
2018-06-19T12:37:55.223Z,99090.50
2018-06-19T12:40:23.961Z,99079.16
2018-06-19T12:42:52.772Z,99083.99
2018-06-19T12:45:21.632Z,99077.63
2018-06-19T12:47:50.389Z,99078.37
2018-06-19T12:50:32.304Z,99080.86
2018-06-19T12:53:13.142Z,99086.44
2018-06-19T12:55:53.149Z,99085.24
2018-06-19T12:58:21.952Z,99081.16
2018-06-19T13:00:50.748Z,99085.87
2018-06-19T13:03:30.559Z,99087.00
2018-06-19T13:06:10.545Z,99076.61
2018-06-19T13:08:39.381Z,99068.70
2018-06-19T13:11:08.641Z,99067.80
2018-06-19T13:13:48.558Z,99066.53
2018-06-19T13:16:28.381Z,99066.27
2018-06-19T13:19:08.302Z,99064.89
2018-06-19T13:21:37.219Z,99063.95
2018-06-19T13:24:06.034Z,99063.59
2018-06-19T13:26:34.967Z,99066.40
2018-06-19T13:29:41.226Z,99063.02
2018-06-19T13:32:09.995Z,99066.03
2018-06-19T13:34:39.066Z,99067.62
2018-06-19T13:37:08.058Z,99064.08
2018-06-19T13:39:37.807Z,99055.41
2018-06-19T13:42:19.307Z,99060.90
2018-06-19T13:44:53.629Z,99055.14
2018-06-19T13:47:22.606Z,99052.62
2018-06-19T13:49:51.435Z,99047.73
2018-06-19T13:52:20.076Z,99043.28
2018-06-19T13:54:48.777Z,99040.84
2018-06-19T13:57:33.962Z,99038.31
2018-06-19T14:00:03.851Z,99037.81
2018-06-19T14:02:32.728Z,99045.15
2018-06-19T14:05:01.660Z,99041.95
2018-06-19T14:07:32.560Z,99043.58
2018-06-19T14:10:20.784Z,99043.04
2018-06-19T14:12:51.248Z,99042.27
2018-06-19T14:15:20.930Z,99037.45
2018-06-19T14:17:49.678Z,99038.75
2018-06-19T14:20:18.499Z,99035.92
2018-06-19T14:22:47.498Z,99040.28
2018-06-19T14:25:16.787Z,99031.06
2018-06-19T14:27:45.719Z,99032.02
2018-06-19T14:30:14.544Z,99031.80
2018-06-19T14:32:43.727Z,99029.02
2018-06-19T14:35:12.808Z,99025.58
2018-06-19T14:37:41.588Z,99028.91
2018-06-19T14:40:10.431Z,99033.73
2018-06-19T14:42:39.100Z,99018.55
2018-06-19T14:45:08.897Z,99022.62
2018-06-19T14:47:37.711Z,99031.77
2018-06-19T14:50:06.427Z,99028.61
2018-06-19T14:52:35.060Z,99019.16
2018-06-19T14:55:03.846Z,99022.92
2018-06-19T14:57:32.611Z,99022.17
2018-06-19T15:00:01.446Z,99017.91
2018-06-19T15:02:30.155Z,99018.52
2018-06-19T15:04:58.867Z,99018.52
2018-06-19T15:07:31.764Z,99009.97
2018-06-19T15:10:00.651Z,99009.09
2018-06-19T15:12:29.407Z,99012.15
2018-06-19T15:14:58.242Z,99011.25
2018-06-19T15:17:27.171Z,99008.30
2018-06-19T15:19:55.836Z,99010.09
2018-06-19T15:22:24.551Z,99003.34
2018-06-19T15:24:53.403Z,99003.36
2018-06-19T15:27:22.177Z,99013.75
2018-06-19T15:29:50.928Z,99006.22
2018-06-19T15:32:19.594Z,99002.17
2018-06-19T15:34:48.467Z,98999.39
2018-06-19T15:37:17.267Z,98993.98
2018-06-19T15:39:45.961Z,98993.88
2018-06-19T15:42:14.723Z,98997.34
2018-06-19T15:44:43.437Z,98996.75
2018-06-19T15:47:12.166Z,98996.28
2018-06-19T15:49:41.014Z,98989.47
2018-06-19T15:52:09.698Z,98996.34
2018-06-19T15:54:38.360Z,98996.71
2018-06-19T15:57:07.111Z,98991.14
2018-06-19T15:59:35.803Z,98990.35
2018-06-19T16:02:04.591Z,98988.37
2018-06-19T16:04:33.261Z,98987.14
2018-06-19T16:07:02.067Z,98990.16
2018-06-19T16:09:30.882Z,98990.73
2018-06-19T16:11:59.637Z,98988.19
2018-06-19T16:14:28.375Z,98985.16
2018-06-19T16:16:57.077Z,98986.91
2018-06-19T16:19:25.950Z,98979.67
2018-06-19T16:21:54.641Z,98985.22
2018-06-19T16:24:23.505Z,98980.50
2018-06-19T16:26:52.983Z,98983.17
2018-06-19T16:29:21.879Z,98985.91
2018-06-19T16:31:50.973Z,98985.45
2018-06-19T16:34:19.683Z,98987.39
2018-06-19T16:36:48.368Z,98980.16
2018-06-19T16:39:17.051Z,98977.51
2018-06-19T16:41:45.824Z,98973.31
2018-06-19T16:44:14.639Z,98980.55
2018-06-19T16:46:43.305Z,98981.69
2018-06-19T16:49:12.138Z,98976.88
2018-06-19T16:51:41.386Z,98973.84
2018-06-19T16:54:10.135Z,98978.05
2018-06-19T16:56:38.848Z,98972.93
2018-06-19T16:59:07.602Z,98973.66
2018-06-19T17:01:36.276Z,98972.78
2018-06-19T17:04:05.132Z,98975.63
2018-06-19T17:06:34.689Z,98975.85
2018-06-19T17:09:03.611Z,98973.48
2018-06-19T17:11:32.441Z,98971.41
2018-06-19T17:14:01.093Z,98967.56
2018-06-19T17:16:30.014Z,98967.91
2018-06-19T17:18:58.929Z,98961.09
2018-06-19T17:21:27.703Z,98958.08
2018-06-19T17:23:56.404Z,98964.09
2018-06-19T17:26:25.147Z,98959.97
2018-06-19T17:28:53.866Z,98963.23
2018-06-19T17:31:22.739Z,98956.31
2018-06-19T17:33:51.441Z,98959.56
2018-06-19T17:36:20.405Z,98959.05
2018-06-19T17:38:49.135Z,98963.98
2018-06-19T17:41:18.171Z,98958.70
2018-06-19T17:43:46.993Z,98953.70
2018-06-19T17:46:15.784Z,98951.09
2018-06-19T17:48:46.593Z,98956.77
2018-06-19T17:51:15.502Z,98954.72
2018-06-19T17:53:44.256Z,98953.41
2018-06-19T17:56:12.988Z,98957.02
2018-06-19T17:58:41.798Z,98957.23
2018-06-19T18:01:10.567Z,98953.53
2018-06-19T18:03:39.418Z,98955.72
2018-06-19T18:06:08.354Z,98957.62
2018-06-19T18:08:37.111Z,98961.80
2018-06-19T18:11:07.521Z,98956.59
2018-06-19T18:13:36.437Z,98959.27
2018-06-19T18:16:05.477Z,98963.07
2018-06-19T18:18:38.400Z,98967.34
2018-06-19T18:21:07.351Z,98964.93
2018-06-19T18:23:36.195Z,98959.86
2018-06-19T18:26:04.890Z,98955.23
2018-06-19T18:28:33.672Z,98957.91
2018-06-19T18:31:02.922Z,98968.88
2018-06-19T18:33:41.914Z,98972.14
2018-06-19T18:36:10.773Z,98972.27
2018-06-19T18:38:39.741Z,98969.03
2018-06-19T18:41:08.592Z,98969.80
2018-06-19T18:43:37.915Z,98973.81
2018-06-19T18:46:12.640Z,98972.74
2018-06-19T18:48:54.261Z,98973.32
2018-06-19T18:51:24.160Z,98970.81
2018-06-19T18:53:56.062Z,98967.58
2018-06-19T18:56:24.744Z,98962.57
2018-06-19T18:58:53.741Z,98969.27
2018-06-19T19:01:22.548Z,98968.09
2018-06-19T19:03:51.215Z,98961.37
2018-06-19T19:06:20.251Z,98960.59
2018-06-19T19:08:49.098Z,98965.32
2018-06-19T19:11:17.774Z,98956.50
2018-06-19T19:13:46.475Z,98965.98
2018-06-19T19:19:33.260Z,98968.09
2018-06-19T19:22:01.919Z,98975.51
2018-06-19T19:24:31.040Z,98976.42
2018-06-19T19:27:05.026Z,98975.02
2018-06-19T19:29:41.322Z,98972.89
2018-06-19T19:32:10.718Z,98974.92
2018-06-19T19:34:40.525Z,98975.08
2018-06-19T19:37:14.612Z,98975.95
2018-06-19T19:39:43.368Z,98979.08
2018-06-19T19:42:13.357Z,98974.09
2018-06-19T19:44:42.906Z,98981.91
2018-06-19T19:47:16.879Z,98988.47
2018-06-19T19:49:45.851Z,98986.98
2018-06-19T19:52:14.974Z,98986.59
2018-06-19T19:54:43.699Z,98995.75
2018-06-19T19:57:17.589Z,98994.33
2018-06-19T19:59:46.437Z,98996.41
2018-06-19T20:02:15.305Z,98993.88
2018-06-19T20:04:44.605Z,98995.72
2018-06-19T20:07:13.836Z,99005.00
2018-06-19T20:09:42.768Z,99001.80
2018-06-19T20:12:11.576Z,99005.33
2018-06-19T20:14:40.270Z,99007.38
2018-06-19T20:17:09.277Z,99003.11
2018-06-19T20:19:38.093Z,99003.98
2018-06-19T20:22:06.818Z,99003.27
2018-06-19T20:24:35.709Z,99005.72
2018-06-19T20:27:04.526Z,99004.63
2018-06-19T20:29:33.323Z,99009.36
2018-06-19T20:32:02.306Z,99011.13
2018-06-19T20:34:31.089Z,99011.20
2018-06-19T20:36:59.892Z,99013.30
2018-06-19T20:39:28.682Z,99007.38
2018-06-19T20:41:57.296Z,99012.00
2018-06-19T20:44:25.982Z,99004.64
2018-06-19T20:46:54.810Z,99002.68
2018-06-19T20:49:23.585Z,99000.97
2018-06-19T20:51:52.357Z,99004.98
2018-06-19T20:54:21.205Z,99001.38
2018-06-19T20:56:50.029Z,99003.53
2018-06-19T20:59:18.783Z,99002.70
2018-06-19T21:01:47.556Z,99001.01
2018-06-19T21:04:16.340Z,98999.42
2018-06-19T21:06:45.121Z,99001.24
2018-06-19T21:09:13.917Z,99002.23
2018-06-19T21:11:42.807Z,99003.69
2018-06-19T21:14:11.526Z,99000.66
2018-06-19T21:16:40.381Z,99003.91
2018-06-19T21:19:09.085Z,99004.77
2018-06-19T21:21:37.790Z,99000.64
2018-06-19T21:24:06.741Z,99003.08
2018-06-19T21:26:35.554Z,99001.97
2018-06-19T21:29:04.422Z,99004.49
2018-06-19T21:31:33.233Z,99001.89
2018-06-19T21:34:01.905Z,98999.38
2018-06-19T21:36:30.735Z,98999.98
2018-06-19T21:38:59.475Z,99005.17
2018-06-19T21:41:28.176Z,99008.83
2018-06-19T21:43:56.979Z,98999.61
2018-06-19T21:46:25.757Z,98999.11
2018-06-19T21:48:55.660Z,99003.73
2018-06-19T21:51:24.476Z,99003.31
2018-06-19T21:53:53.216Z,98997.09
2018-06-19T21:56:22.033Z,98999.00
2018-06-19T21:58:51.364Z,99002.28
2018-06-19T22:01:23.411Z,99000.97
2018-06-19T22:04:00.201Z,98996.88
2018-06-19T22:06:33.555Z,98997.33
2018-06-19T22:09:02.768Z,99003.84
2018-06-19T22:11:31.407Z,99002.50
2018-06-19T22:14:00.117Z,99003.93
2018-06-19T22:16:28.854Z,99010.78
2018-06-19T22:18:57.594Z,99018.02
2018-06-19T22:21:26.948Z,99006.05
2018-06-19T22:23:55.776Z,99014.66
2018-06-19T22:26:24.475Z,99021.88
2018-06-19T22:28:54.266Z,99022.62
2018-06-19T22:31:23.210Z,99020.85
2018-06-19T22:33:52.177Z,99022.05
2018-06-19T22:36:20.982Z,99019.63
2018-06-19T22:38:49.749Z,99019.74
2018-06-19T22:41:18.557Z,99016.17
2018-06-19T22:43:47.261Z,99012.61
2018-06-19T22:46:15.928Z,99018.15
2018-06-19T22:48:45.572Z,99017.42
2018-06-19T22:51:14.317Z,99018.10
2018-06-19T22:53:43.020Z,99015.95
2018-06-19T22:56:11.819Z,99018.30
2018-06-19T22:58:40.483Z,99020.08
2018-06-19T23:01:09.101Z,99019.69
2018-06-19T23:03:38.051Z,99018.44
2018-06-19T23:06:06.836Z,99017.50
2018-06-19T23:08:35.966Z,99022.36
2018-06-19T23:11:04.865Z,99017.77
2018-06-19T23:13:33.626Z,99022.95
2018-06-19T23:16:02.409Z,99021.83
2018-06-19T23:18:31.173Z,99012.75
2018-06-19T23:20:59.877Z,99016.58
2018-06-19T23:23:28.658Z,99019.95
2018-06-19T23:25:57.471Z,99017.98
2018-06-19T23:28:26.419Z,99019.17
2018-06-19T23:30:55.156Z,99023.08
2018-06-19T23:33:23.894Z,99019.80
2018-06-19T23:35:52.614Z,99016.16
2018-06-19T23:38:21.342Z,99019.27
2018-06-19T23:40:50.110Z,99020.13
2018-06-19T23:43:18.787Z,99026.31
2018-06-19T23:45:47.585Z,99023.11
2018-06-19T23:48:16.293Z,99016.55
2018-06-19T23:50:45.079Z,99011.07
2018-06-19T23:53:13.914Z,99015.59
2018-06-19T23:55:42.750Z,99015.78
2018-06-19T23:58:11.456Z,99014.18
